Time;durP1;ratioP1;P1;durP2;ratioP2;P2;SDS_P1;SDS_P2;PMS_P1;PMS_P2;Temp;Humidity;BMP_temperature;BMP_pressure;BME280_temperature;BME280_humidity;BME280_pressure;Samples;Min_cycle;Max_cycle;Signal;HPM_P1;HPM_P2
2021/09/04 00:00:00;;;;;;;12.88;9.57;;;13.60;77.00;;;;;;4995037;28;20441;-73
2021/09/04 00:02:25;;;;;;;12.75;7.53;;;13.60;76.80;;;;;;4995470;28;20519;-73
2021/09/04 00:04:51;;;;;;;11.95;8.20;;;13.50;76.70;;;;;;4995172;28;20085;-73
2021/09/04 00:07:17;;;;;;;15.43;8.95;;;13.50;76.70;;;;;;4995006;28;20027;-73
2021/09/04 00:09:42;;;;;;;9.57;6.72;;;13.50;76.70;;;;;;4994958;28;20026;-73
2021/09/04 00:12:08;;;;;;;11.95;6.75;;;13.60;76.80;;;;;;4994532;28;20472;-73
2021/09/04 00:14:34;;;;;;;8.88;6.18;;;13.50;76.80;;;;;;4977271;28;20073;-73
2021/09/04 00:17:00;;;;;;;9.95;6.70;;;13.50;76.80;;;;;;4995025;28;20026;-74
2021/09/04 00:19:26;;;;;;;11.35;7.32;;;13.50;76.70;;;;;;4994804;28;20112;-74
2021/09/04 00:21:52;;;;;;;11.75;7.00;;;13.50;76.80;;;;;;4994537;28;20033;-73
2021/09/04 00:24:17;;;;;;;11.93;7.20;;;13.50;76.70;;;;;;4994704;28;20026;-71
2021/09/04 00:26:43;;;;;;;11.60;7.10;;;13.50;76.80;;;;;;4994612;28;20031;-72
2021/09/04 00:29:09;;;;;;;8.70;6.25;;;13.50;76.80;;;;;;4994574;28;20026;-72
2021/09/04 00:31:35;;;;;;;8.85;6.40;;;13.50;76.80;;;;;;4977209;28;20388;-73
2021/09/04 00:34:00;;;;;;;10.90;6.25;;;13.50;76.80;;;;;;4993975;28;20465;-72
2021/09/04 00:36:26;;;;;;;12.38;6.88;;;13.50;76.90;;;;;;4994379;28;20057;-73
2021/09/04 00:38:52;;;;;;;9.13;6.68;;;13.50;77.00;;;;;;4993938;28;20118;-73
2021/09/04 00:41:22;;;;;;;9.68;6.65;;;13.50;77.00;;;;;;4994063;28;20049;-72
2021/09/04 00:43:49;;;;;;;12.55;6.57;;;13.50;77.10;;;;;;4994191;28;20404;-73
2021/09/04 00:46:15;;;;;;;9.23;6.38;;;13.60;77.20;;;;;;4994170;28;20414;-72
2021/09/04 00:48:41;;;;;;;7.68;6.07;;;13.60;77.30;;;;;;4994259;28;20038;-72
2021/09/04 00:51:07;;;;;;;10.35;6.47;;;13.60;77.20;;;;;;4994684;28;20041;-73
2021/09/04 00:53:36;;;;;;;12.30;6.97;;;13.60;77.20;;;;;;4993842;28;20027;-72
2021/09/04 00:56:02;;;;;;;10.30;6.72;;;13.70;77.10;;;;;;4993578;28;20031;-73
2021/09/04 00:58:28;;;;;;;10.02;6.80;;;13.70;76.90;;;;;;4993547;28;20037;-72
2021/09/04 01:00:54;;;;;;;11.43;6.95;;;13.70;76.80;;;;;;4993565;28;20093;-74
2021/09/04 01:03:21;;;;;;;11.60;6.55;;;13.70;76.60;;;;;;4993679;28;20031;-74
2021/09/04 01:05:50;;;;;;;13.60;6.90;;;13.70;76.60;;;;;;4993749;28;20388;-74
2021/09/04 01:08:16;;;;;;;9.23;6.75;;;13.70;76.60;;;;;;4993650;28;20030;-73
2021/09/04 01:10:43;;;;;;;12.73;7.03;;;13.60;76.70;;;;;;4993568;28;20436;-73
2021/09/04 01:13:09;;;;;;;13.73;7.60;;;13.60;76.90;;;;;;4993510;28;20018;-74
2021/09/04 01:15:36;;;;;;;13.43;6.93;;;13.60;77.10;;;;;;4993543;28;20018;-73
2021/09/04 01:18:05;;;;;;;10.60;6.97;;;13.50;77.30;;;;;;4993606;28;20061;-73
2021/09/04 01:20:32;;;;;;;11.52;6.85;;;13.50;77.50;;;;;;4993461;28;20484;-73
2021/09/04 01:22:58;;;;;;;11.73;7.30;;;13.50;77.60;;;;;;4976152;28;20023;-73
2021/09/04 01:25:28;;;;;;;10.77;6.93;;;13.50;77.80;;;;;;4993534;28;20492;-73
2021/09/04 01:27:59;;;;;;;9.90;7.10;;;13.50;77.80;;;;;;4993604;28;20169;-72
2021/09/04 01:30:25;;;;;;;11.93;8.02;;;13.50;77.90;;;;;;4993205;28;20033;-72
2021/09/04 01:32:51;;;;;;;19.13;13.77;;;13.50;78.00;;;;;;4993301;28;20395;-71
2021/09/04 01:35:22;;;;;;;12.00;7.28;;;13.40;78.10;;;;;;4993263;28;20041;-71
2021/09/04 01:37:49;;;;;;;12.15;6.88;;;13.40;78.30;;;;;;4993533;28;20018;-72
2021/09/04 01:40:16;;;;;;;12.73;8.38;;;13.40;78.30;;;;;;4993041;28;20030;-70
2021/09/04 01:42:47;;;;;;;8.93;6.85;;;13.40;78.40;;;;;;4992828;28;20053;-72
2021/09/04 01:45:13;;;;;;;11.57;6.97;;;13.40;78.60;;;;;;4992515;28;20029;-71
2021/09/04 01:47:40;;;;;;;10.55;7.15;;;13.40;78.60;;;;;;4992879;28;20065;-71
2021/09/04 01:50:11;;;;;;;10.32;7.10;;;13.40;78.70;;;;;;4993012;28;20030;-70
2021/09/04 01:52:38;;;;;;;9.50;6.68;;;13.30;78.80;;;;;;4975646;28;20034;-70
2021/09/04 01:55:06;;;;;;;9.25;6.93;;;13.30;79.00;;;;;;4992837;28;20026;-70
2021/09/04 01:57:31;;;;;;;9.63;7.38;;;13.30;79.00;;;;;;4992654;28;20073;-70
2021/09/04 01:59:57;;;;;;;10.30;6.57;;;13.30;79.10;;;;;;4992648;28;20023;-71
2021/09/04 02:02:23;;;;;;;10.30;6.75;;;13.30;79.10;;;;;;4993058;28;20105;-71
2021/09/04 02:04:49;;;;;;;8.45;6.18;;;13.40;79.00;;;;;;4992668;28;20473;-69
2021/09/04 02:07:14;;;;;;;11.68;6.60;;;13.40;79.70;;;;;;4992840;28;20018;-70
2021/09/04 02:09:40;;;;;;;9.00;6.93;;;13.40;79.00;;;;;;4992598;28;20041;-71
2021/09/04 02:12:06;;;;;;;10.00;6.25;;;13.40;79.10;;;;;;4992508;28;20037;-70
2021/09/04 02:14:32;;;;;;;9.45;6.88;;;13.40;79.00;;;;;;4992558;28;20026;-71
2021/09/04 02:16:58;;;;;;;9.98;7.03;;;13.50;79.10;;;;;;4992569;28;20033;-71
2021/09/04 02:19:24;;;;;;;8.07;6.40;;;13.50;79.00;;;;;;4992542;28;20030;-71
2021/09/04 02:21:49;;;;;;;12.40;7.22;;;13.50;79.00;;;;;;4992557;28;20077;-71
2021/09/04 02:24:15;;;;;;;10.57;6.95;;;13.50;79.00;;;;;;4992023;28;20065;-70
2021/09/04 02:26:41;;;;;;;10.82;6.95;;;13.50;78.90;;;;;;4992524;28;20039;-70
2021/09/04 02:29:07;;;;;;;10.82;6.90;;;13.60;78.90;;;;;;4992411;28;20427;-70
2021/09/04 02:31:32;;;;;;;9.30;6.50;;;13.60;78.80;;;;;;4975243;28;20499;-72
2021/09/04 02:33:58;;;;;;;8.25;6.78;;;13.60;78.80;;;;;;4975592;28;20034;-71
2021/09/04 02:36:24;;;;;;;8.60;6.45;;;13.70;78.90;;;;;;4992727;28;20022;-71
2021/09/04 02:38:50;;;;;;;10.25;6.88;;;13.70;78.60;;;;;;4992344;28;20154;-72
2021/09/04 02:41:17;;;;;;;10.90;6.88;;;13.70;78.40;;;;;;4992502;28;20033;-72
2021/09/04 02:43:43;;;;;;;9.45;6.90;;;13.70;78.80;;;;;;4992181;28;20121;-72
2021/09/04 02:46:09;;;;;;;9.35;6.93;;;13.70;78.30;;;;;;4992248;28;20109;-72
2021/09/04 02:48:35;;;;;;;9.73;6.72;;;13.70;78.40;;;;;;4992254;28;20031;-71
2021/09/04 02:51:01;;;;;;;21.23;14.98;;;13.70;78.50;;;;;;4992320;28;20027;-71
2021/09/04 02:53:27;;;;;;;50.53;36.30;;;13.70;78.60;;;;;;4992212;28;20387;-71
2021/09/04 02:55:52;;;;;;;10.40;7.15;;;13.60;78.80;;;;;;4992402;28;20028;-72
2021/09/04 02:58:18;;;;;;;9.88;7.20;;;13.70;78.90;;;;;;4996051;28;20034;-71
2021/09/04 03:00:44;;;;;;;10.30;7.20;;;13.70;79.00;;;;;;4995979;28;20026;-71
2021/09/04 03:03:10;;;;;;;10.80;7.32;;;13.80;79.00;;;;;;4995824;28;20038;-70
2021/09/04 03:05:35;;;;;;;11.73;7.15;;;13.80;78.90;;;;;;4996038;28;20454;-70
2021/09/04 03:08:02;;;;;;;11.55;7.35;;;13.80;78.70;;;;;;4995950;28;20022;-71
2021/09/04 03:10:28;;;;;;;12.50;7.75;;;13.80;78.70;;;;;;4995637;28;20580;-71
2021/09/04 03:12:55;;;;;;;11.05;6.88;;;13.90;78.70;;;;;;4978224;28;20114;-71
2021/09/04 03:15:21;;;;;;;11.23;8.20;;;13.90;78.80;;;;;;4995820;28;20030;-71
2021/09/04 03:17:47;;;;;;;12.02;8.65;;;13.90;78.80;;;;;;4995589;28;20088;-71
2021/09/04 03:20:13;;;;;;;11.57;7.25;;;14.00;78.70;;;;;;4995679;28;20081;-71
2021/09/04 03:22:39;;;;;;;12.60;7.68;;;14.00;78.60;;;;;;4995537;28;20416;-71
2021/09/04 03:25:05;;;;;;;10.70;7.45;;;14.00;78.50;;;;;;4995652;28;20026;-71
2021/09/04 03:27:32;;;;;;;11.52;7.32;;;14.00;78.50;;;;;;4995846;28;20030;-71
2021/09/04 03:29:59;;;;;;;12.00;7.53;;;14.10;78.40;;;;;;4995749;28;20030;-71
2021/09/04 03:32:24;;;;;;;10.60;7.22;;;14.10;78.40;;;;;;4995564;28;20204;-71
2021/09/04 03:34:52;;;;;;;11.02;7.50;;;14.10;78.30;;;;;;4995290;28;20874;-71
2021/09/04 03:37:18;;;;;;;10.32;7.15;;;14.10;78.30;;;;;;4995615;28;20134;-71
2021/09/04 03:39:44;;;;;;;12.88;7.47;;;14.10;78.30;;;;;;4995417;28;20528;-70
2021/09/04 03:42:10;;;;;;;12.38;7.82;;;14.10;78.10;;;;;;4994976;28;20105;-72
2021/09/04 03:44:37;;;;;;;11.05;6.93;;;14.20;78.10;;;;;;4994981;28;20035;-71
2021/09/04 03:47:04;;;;;;;12.88;7.32;;;14.20;78.10;;;;;;4995079;28;20057;-73
2021/09/04 03:49:30;;;;;;;10.60;6.80;;;14.20;78.10;;;;;;4995161;28;20023;-70
2021/09/04 03:51:56;;;;;;;12.02;7.57;;;14.30;78.00;;;;;;4995307;28;20244;-71
2021/09/04 03:54:22;;;;;;;11.68;7.38;;;14.30;77.90;;;;;;4995031;28;20022;-71
2021/09/04 03:56:48;;;;;;;10.30;7.05;;;14.30;77.90;;;;;;4995104;28;20053;-71
2021/09/04 03:59:13;;;;;;;10.52;7.60;;;14.40;78.00;;;;;;4994897;28;20464;-72
2021/09/04 04:01:39;;;;;;;9.57;7.10;;;14.40;77.90;;;;;;4994879;28;20089;-71
2021/09/04 04:04:05;;;;;;;9.00;6.43;;;14.40;77.90;;;;;;4994821;28;20030;-71
2021/09/04 04:06:31;;;;;;;13.30;7.50;;;14.40;77.90;;;;;;4995023;28;20488;-71
2021/09/04 04:08:57;;;;;;;12.90;7.32;;;14.40;77.90;;;;;;4993660;28;20026;-72
2021/09/04 04:11:23;;;;;;;15.30;7.28;;;14.50;78.00;;;;;;4994465;28;20408;-71
2021/09/04 04:13:49;;;;;;;10.50;7.38;;;14.60;78.00;;;;;;4994648;28;20031;-72
2021/09/04 04:16:14;;;;;;;11.30;7.00;;;14.90;78.00;;;;;;4994721;28;20109;-71
2021/09/04 04:18:40;;;;;;;10.70;7.40;;;15.10;77.30;;;;;;4994107;28;20034;-71
2021/09/04 04:21:06;;;;;;;9.73;6.75;;;15.60;77.00;;;;;;4994463;28;20030;-72
2021/09/04 04:23:32;;;;;;;11.07;6.90;;;16.00;75.20;;;;;;4994261;28;20439;-72
2021/09/04 04:25:58;;;;;;;13.43;8.52;;;16.20;74.00;;;;;;4994645;28;20031;-71
2021/09/04 04:28:24;;;;;;;12.52;7.15;;;16.30;73.30;;;;;;4994586;28;20146;-72
2021/09/04 04:30:50;;;;;;;12.82;7.75;;;16.30;72.90;;;;;;4994274;28;20049;-72
2021/09/04 04:33:18;;;;;;;11.73;7.40;;;16.40;72.70;;;;;;4994474;28;20026;-72
2021/09/04 04:35:44;;;;;;;12.63;6.90;;;16.70;72.70;;;;;;4994346;28;20018;-72
2021/09/04 04:38:10;;;;;;;10.32;6.80;;;17.30;72.60;;;;;;4976500;28;20022;-71
2021/09/04 04:40:36;;;;;;;9.43;6.63;;;18.30;71.30;;;;;;4994021;28;20022;-71
2021/09/04 04:43:02;;;;;;;14.68;7.00;;;19.70;69.10;;;;;;4993786;28;20505;-72
2021/09/04 04:45:28;;;;;;;11.13;7.25;;;21.10;66.00;;;;;;4993740;28;20027;-72
2021/09/04 04:47:54;;;;;;;10.68;6.65;;;22.40;62.70;;;;;;4994052;28;20027;-72
2021/09/04 04:50:20;;;;;;;9.27;6.63;;;23.70;59.90;;;;;;4993876;28;20026;-71
2021/09/04 04:52:45;;;;;;;8.43;5.90;;;24.70;57.00;;;;;;4993631;28;20027;-71
2021/09/04 04:55:11;;;;;;;14.52;6.38;;;25.50;54.80;;;;;;4993381;28;20022;-71
2021/09/04 04:57:38;;;;;;;9.45;6.28;;;25.90;52.90;;;;;;4993462;28;20026;-72
2021/09/04 05:00:04;;;;;;;13.80;6.97;;;25.60;51.70;;;;;;4976159;28;20033;-71
2021/09/04 05:02:30;;;;;;;11.20;6.57;;;25.00;51.40;;;;;;4993589;28;20030;-72
2021/09/04 05:04:56;;;;;;;11.95;5.93;;;24.30;52.00;;;;;;4993338;28;20084;-72
2021/09/04 05:07:22;;;;;;;11.02;6.43;;;23.70;52.90;;;;;;4993265;28;20038;-73
2021/09/04 05:09:47;;;;;;;12.65;6.32;;;23.20;53.90;;;;;;4993370;28;20489;-73
2021/09/04 05:12:13;;;;;;;11.52;6.47;;;22.60;54.80;;;;;;4992913;28;20417;-73
2021/09/04 05:14:39;;;;;;;12.40;7.07;;;22.30;55.60;;;;;;4993246;28;20057;-72
2021/09/04 05:17:04;;;;;;;10.32;7.30;;;22.00;56.10;;;;;;4993307;28;20030;-72
2021/09/04 05:19:30;;;;;;;11.13;6.80;;;21.70;56.60;;;;;;4993272;28;20026;-73
2021/09/04 05:21:57;;;;;;;13.80;7.32;;;21.40;57.30;;;;;;4992832;28;20027;-73
2021/09/04 05:24:23;;;;;;;9.32;6.82;;;21.10;58.60;;;;;;4993045;28;20176;-72
2021/09/04 05:26:48;;;;;;;11.63;6.28;;;20.90;58.50;;;;;;4992810;28;20053;-73
2021/09/04 05:29:15;;;;;;;16.00;9.45;;;20.80;59.10;;;;;;4992571;28;20065;-73
2021/09/04 05:31:40;;;;;;;13.15;6.85;;;20.90;59.60;;;;;;4992824;28;20034;-73
2021/09/04 05:34:06;;;;;;;13.48;6.53;;;21.60;60.00;;;;;;4992920;28;20030;-73
2021/09/04 05:36:32;;;;;;;11.98;6.63;;;22.40;58.50;;;;;;4992655;28;20490;-72
2021/09/04 05:38:58;;;;;;;10.95;6.47;;;23.10;56.60;;;;;;4992643;28;20031;-73
2021/09/04 05:41:24;;;;;;;12.43;9.32;;;23.40;55.20;;;;;;4992293;28;20044;-72
2021/09/04 05:43:50;;;;;;;13.40;7.10;;;23.40;54.80;;;;;;4992579;28;20030;-72
2021/09/04 05:46:16;;;;;;;13.57;6.85;;;23.40;54.80;;;;;;4992288;28;20389;-73
2021/09/04 05:48:41;;;;;;;17.38;11.23;;;23.30;54.70;;;;;;4992510;28;20039;-72
2021/09/04 05:51:07;;;;;;;12.05;6.95;;;23.10;54.90;;;;;;4992729;28;20026;-72
2021/09/04 05:53:33;;;;;;;12.85;7.05;;;23.00;55.10;;;;;;4992495;28;20026;-73
2021/09/04 05:55:59;;;;;;;10.90;6.95;;;22.90;55.30;;;;;;4992474;28;20038;-72
2021/09/04 05:58:24;;;;;;;17.45;7.35;;;22.90;55.70;;;;;;4974998;28;20030;-72
2021/09/04 06:00:51;;;;;;;12.23;7.18;;;23.40;56.20;;;;;;4992450;28;20022;-72
2021/09/04 06:03:17;;;;;;;14.93;7.47;;;23.90;55.30;;;;;;4992601;28;20473;-71
2021/09/04 06:05:43;;;;;;;12.48;7.00;;;24.40;54.50;;;;;;4992786;28;20177;-73
2021/09/04 06:08:08;;;;;;;12.57;6.57;;;24.80;53.60;;;;;;4992420;28;20026;-73
2021/09/04 06:10:34;;;;;;;10.05;6.63;;;25.00;52.90;;;;;;4974670;28;20027;-74
2021/09/04 06:13:00;;;;;;;11.90;6.05;;;25.00;52.80;;;;;;4992243;28;20034;-73
2021/09/04 06:15:25;;;;;;;11.15;6.95;;;25.60;52.60;;;;;;4992104;28;20088;-73
2021/09/04 06:17:51;;;;;;;19.42;8.90;;;26.20;51.80;;;;;;4991966;28;20414;-72
2021/09/04 06:20:17;;;;;;;10.90;6.93;;;26.80;51.30;;;;;;4992027;28;20058;-73
2021/09/04 06:22:43;;;;;;;9.55;6.60;;;27.50;49.90;;;;;;4992165;28;20083;-72
2021/09/04 06:25:09;;;;;;;11.57;6.45;;;27.60;48.90;;;;;;4974400;28;20027;-72
2021/09/04 06:27:36;;;;;;;11.75;7.32;;;27.50;48.80;;;;;;4992016;28;20014;-73
2021/09/04 06:30:03;;;;;;;10.98;7.05;;;27.30;48.70;;;;;;4992123;28;20030;-73
2021/09/04 06:32:29;;;;;;;13.85;6.63;;;27.60;49.00;;;;;;4995054;28;20031;-73
2021/09/04 06:34:54;;;;;;;13.10;7.10;;;28.20;48.80;;;;;;4995634;28;20102;-73
2021/09/04 06:37:20;;;;;;;12.73;7.75;;;29.30;48.00;;;;;;4995799;28;20060;-73
2021/09/04 06:39:46;;;;;;;13.40;6.32;;;30.20;47.10;;;;;;4995661;28;20034;-72
2021/09/04 06:42:12;;;;;;;16.27;7.40;;;30.80;45.70;;;;;;4994679;28;20081;-74
2021/09/04 06:44:37;;;;;;;15.05;6.80;;;31.40;44.70;;;;;;4995268;28;20484;-73
2021/09/04 06:47:03;;;;;;;11.77;6.32;;;31.60;43.70;;;;;;4995021;28;20077;-74
2021/09/04 06:49:29;;;;;;;11.27;7.60;;;31.20;43.50;;;;;;4995366;28;20030;-72
2021/09/04 06:51:55;;;;;;;17.85;7.10;;;30.80;43.60;;;;;;4995705;28;20034;-72
2021/09/04 06:54:24;;;;;;;13.35;6.55;;;30.30;44.00;;;;;;4995397;28;20057;-71
2021/09/04 06:56:50;;;;;;;8.85;6.53;;;29.70;44.40;;;;;;4977509;28;20034;-73
2021/09/04 06:59:16;;;;;;;9.85;6.43;;;29.10;45.00;;;;;;4994885;28;20049;-72
2021/09/04 07:01:42;;;;;;;8.82;6.75;;;28.40;45.60;;;;;;4995133;28;20026;-72
2021/09/04 07:04:08;;;;;;;13.07;7.13;;;27.70;46.40;;;;;;4995046;28;20457;-72
2021/09/04 07:06:33;;;;;;;12.75;6.60;;;26.90;47.30;;;;;;4994534;28;20303;-72
2021/09/04 07:08:59;;;;;;;10.85;6.40;;;26.20;48.40;;;;;;4994399;28;20334;-72
2021/09/04 07:11:25;;;;;;;20.38;7.15;;;25.60;49.50;;;;;;4994286;28;20027;-72
2021/09/04 07:13:50;;;;;;;16.17;6.95;;;25.10;50.50;;;;;;4994727;28;20466;-72
2021/09/04 07:16:16;;;;;;;14.60;6.07;;;24.60;51.40;;;;;;4994587;28;20034;-73
2021/09/04 07:18:42;;;;;;;7.65;5.63;;;24.40;52.40;;;;;;4994515;28;20026;-72
2021/09/04 07:21:07;;;;;;;8.90;5.20;;;24.40;52.60;;;;;;4994730;28;20034;-72
2021/09/04 07:23:34;;;;;;;9.68;5.25;;;24.50;52.50;;;;;;4994829;28;20030;-73
2021/09/04 07:26:00;;;;;;;14.02;6.00;;;24.40;52.40;;;;;;4994369;28;20025;-72
2021/09/04 07:28:25;;;;;;;9.32;6.03;;;24.30;52.80;;;;;;4994694;28;20109;-72
2021/09/04 07:30:51;;;;;;;16.00;6.32;;;24.10;53.10;;;;;;4994244;28;20105;-73
2021/09/04 07:33:17;;;;;;;7.47;5.00;;;23.80;53.50;;;;;;4994251;28;20026;-72
2021/09/04 07:35:42;;;;;;;6.60;5.15;;;23.70;53.70;;;;;;4994215;28;20030;-73
2021/09/04 07:38:08;;;;;;;6.88;4.72;;;23.50;54.10;;;;;;4976645;28;20030;-72
2021/09/04 07:40:34;;;;;;;12.65;4.82;;;23.40;54.40;;;;;;4993997;28;20198;-72
2021/09/04 07:43:00;;;;;;;7.13;4.63;;;23.40;54.80;;;;;;4992973;28;20144;-72
2021/09/04 07:45:25;;;;;;;6.22;4.28;;;23.50;54.50;;;;;;4993928;28;20030;-73
2021/09/04 07:47:51;;;;;;;4.88;4.38;;;23.60;54.30;;;;;;4993733;28;20042;-72
2021/09/04 07:50:17;;;;;;;14.68;6.38;;;23.50;54.10;;;;;;4993575;28;20045;-73
2021/09/04 07:52:43;;;;;;;37.83;10.18;;;23.50;54.20;;;;;;4993972;28;20105;-72
2021/09/04 07:55:09;;;;;;;36.22;9.25;;;23.40;54.50;;;;;;4993841;28;20061;-72
2021/09/04 07:57:34;;;;;;;41.15;10.05;;;23.30;54.70;;;;;;4993805;28;20050;-71
2021/09/04 08:00:00;;;;;;;18.63;5.68;;;23.20;54.80;;;;;;4993809;28;20066;-72
2021/09/04 08:02:26;;;;;;;7.43;4.10;;;23.10;55.00;;;;;;4993689;28;20453;-72
2021/09/04 08:04:52;;;;;;;10.35;5.80;;;22.90;55.20;;;;;;4976075;28;20512;-73
2021/09/04 08:07:17;;;;;;;7.18;4.10;;;22.80;55.50;;;;;;4993568;28;20038;-73
2021/09/04 08:09:43;;;;;;;4.45;3.47;;;22.80;55.70;;;;;;4993468;28;20030;-72
2021/09/04 08:12:09;;;;;;;6.80;3.55;;;22.90;55.50;;;;;;4993140;28;20057;-71
2021/09/04 08:14:34;;;;;;;8.40;3.60;;;22.90;55.40;;;;;;4993388;28;20022;-72
2021/09/04 08:17:00;;;;;;;5.18;3.15;;;22.80;55.10;;;;;;4993592;28;20041;-71
2021/09/04 08:19:26;;;;;;;5.95;4.50;;;22.70;55.00;;;;;;4992951;28;20038;-71
2021/09/04 08:21:51;;;;;;;8.48;3.65;;;22.50;55.10;;;;;;4993042;28;20022;-71
2021/09/04 08:24:17;;;;;;;7.47;3.92;;;22.30;55.30;;;;;;4992675;28;20122;-71
2021/09/04 08:26:43;;;;;;;10.15;5.15;;;22.20;55.50;;;;;;4992870;28;20105;-71
2021/09/04 08:29:11;;;;;;;5.93;3.80;;;22.20;55.50;;;;;;4992995;28;20380;-72
2021/09/04 08:31:36;;;;;;;5.97;3.20;;;22.30;55.40;;;;;;4977150;28;20370;-75
2021/09/04 08:34:02;;;;;;;6.20;2.92;;;22.60;55.10;;;;;;4993989;28;20026;-75
2021/09/04 08:36:28;;;;;;;4.30;2.60;;;23.00;54.20;;;;;;4994146;28;20061;-78
2021/09/04 08:38:53;;;;;;;4.60;3.20;;;23.20;53.30;;;;;;4993643;28;20034;-78
2021/09/04 08:41:19;;;;;;;6.60;3.88;;;23.20;52.70;;;;;;4993943;28;20050;-80
2021/09/04 08:43:45;;;;;;;7.03;3.03;;;23.10;52.60;;;;;;4994483;28;20027;-78
2021/09/04 08:46:15;;;;;;;4.75;2.67;;;23.00;52.50;;;;;;4995279;28;20084;-79
2021/09/04 08:48:43;;;;;;;4.65;2.65;;;23.00;52.40;;;;;;4994859;28;20062;-76
2021/09/04 08:51:09;;;;;;;9.75;3.78;;;22.80;52.50;;;;;;4994712;28;20069;-76
2021/09/04 08:53:35;;;;;;;5.88;3.72;;;22.70;52.80;;;;;;4994266;28;20072;-76
2021/09/04 08:56:00;;;;;;;8.85;4.53;;;22.50;52.90;;;;;;4993756;28;20363;-76
2021/09/04 08:58:26;;;;;;;7.30;3.40;;;22.40;53.10;;;;;;4994039;28;20057;-76
2021/09/04 09:00:52;;;;;;;7.85;3.72;;;22.40;53.30;;;;;;4976532;28;20358;-76
2021/09/04 09:03:22;;;;;;;4.45;2.72;;;22.40;53.30;;;;;;4976527;28;20117;-75
2021/09/04 09:05:48;;;;;;;7.15;2.78;;;22.50;53.00;;;;;;4993912;28;20105;-75
2021/09/04 09:08:26;;;;;;;4.53;3.10;;;22.60;53.30;;;;;;4994342;28;20019;-75
2021/09/04 09:10:55;;;;;;;5.70;3.85;;;22.70;52.40;;;;;;4993940;28;20030;-76
2021/09/04 09:13:21;;;;;;;6.40;3.90;;;22.90;52.10;;;;;;4993810;28;20098;-77
2021/09/04 09:15:54;;;;;;;6.40;2.85;;;23.10;52.00;;;;;;4994252;28;20118;-75
2021/09/04 09:18:27;;;;;;;6.88;4.05;;;23.30;51.60;;;;;;4976634;28;20077;-76
2021/09/04 09:21:04;;;;;;;10.43;4.10;;;23.40;51.20;;;;;;4994201;28;20027;-77
2021/09/04 09:23:30;;;;;;;8.30;3.20;;;23.40;50.90;;;;;;4994216;28;20030;-76
2021/09/04 09:26:06;;;;;;;9.07;3.40;;;23.40;50.90;;;;;;4993892;28;20026;-76
2021/09/04 09:28:32;;;;;;;8.90;3.03;;;23.50;50.70;;;;;;4993441;28;20035;-76
2021/09/04 09:31:00;;;;;;;5.60;2.95;;;23.70;50.60;;;;;;4993069;28;20379;-77
2021/09/04 09:33:31;;;;;;;6.57;2.80;;;23.80;50.30;;;;;;4993747;28;20019;-79
2021/09/04 09:35:59;;;;;;;10.93;2.70;;;23.90;50.00;;;;;;4992207;28;20028;-77
2021/09/04 09:38:27;;;;;;;7.13;4.30;;;24.20;49.80;;;;;;4993275;28;20022;-77
2021/09/04 09:40:54;;;;;;;10.50;3.40;;;24.50;49.40;;;;;;4993805;28;20101;-77
2021/09/04 09:43:24;;;;;;;6.63;3.35;;;24.60;49.00;;;;;;4992408;28;20196;-77
2021/09/04 09:45:52;;;;;;;6.15;3.28;;;24.70;48.90;;;;;;4992911;28;20019;-78
2021/09/04 09:48:31;;;;;;;7.82;3.65;;;24.80;48.50;;;;;;4992615;28;20030;-77
2021/09/04 09:50:59;;;;;;;9.90;4.38;;;24.80;47.70;;;;;;4992813;28;20365;-77
2021/09/04 09:53:26;;;;;;;5.95;3.92;;;24.70;47.90;;;;;;4992760;28;20022;-77
2021/09/04 09:55:54;;;;;;;6.35;3.65;;;24.60;47.70;;;;;;4992605;28;20033;-77
2021/09/04 09:58:22;;;;;;;9.32;3.72;;;24.60;47.40;;;;;;4992973;28;20073;-77
2021/09/04 10:00:49;;;;;;;17.85;5.20;;;24.70;47.40;;;;;;4992303;28;20033;-76
2021/09/04 10:03:18;;;;;;;5.20;3.10;;;24.80;47.50;;;;;;4992420;28;20492;-77
2021/09/04 10:05:46;;;;;;;8.45;3.80;;;25.00;47.20;;;;;;4991615;28;20377;-77
2021/09/04 10:08:15;;;;;;;4.18;3.75;;;25.20;47.00;;;;;;4992101;28;20358;-78
2021/09/04 10:10:43;;;;;;;8.40;5.32;;;25.50;46.70;;;;;;4991673;28;20049;-78
2021/09/04 10:13:10;;;;;;;7.90;3.33;;;25.80;46.40;;;;;;4992570;28;20106;-72
2021/09/04 10:15:38;;;;;;;7.63;3.15;;;26.10;46.00;;;;;;4992237;28;20718;-71
2021/09/04 10:18:09;;;;;;;8.43;3.50;;;26.30;45.50;;;;;;4992033;28;20212;-72
2021/09/04 10:20:36;;;;;;;9.33;2.90;;;26.50;45.00;;;;;;4991726;28;20416;-72
2021/09/04 10:23:28;;;;;;;6.40;3.17;;;26.60;44.80;;;;;;4991631;28;20404;-71
2021/09/04 10:25:53;;;;;;;7.70;4.32;;;26.50;44.30;;;;;;4991333;28;20019;-72
2021/09/04 10:28:19;;;;;;;7.70;4.40;;;26.30;44.30;;;;;;4991511;28;20454;-73
2021/09/04 10:30:53;;;;;;;6.25;4.20;;;25.90;44.30;;;;;;4991750;28;20023;-72
2021/09/04 10:33:24;;;;;;;4.90;3.65;;;25.80;44.50;;;;;;4991612;28;20045;-71
2021/09/04 10:35:57;;;;;;;13.85;4.20;;;25.80;44.60;;;;;;4991623;28;20057;-73
2021/09/04 10:38:22;;;;;;;7.90;4.30;;;25.70;44.60;;;;;;4991987;28;20034;-72
2021/09/04 10:41:13;;;;;;;7.53;3.58;;;25.60;44.50;;;;;;4974229;28;20030;-72
2021/09/04 10:43:44;;;;;;;4.38;3.50;;;25.60;43.90;;;;;;4991554;28;20062;-72
2021/09/04 10:46:15;;;;;;;3.38;2.97;;;25.60;44.10;;;;;;4991705;28;20060;-72
2021/09/04 10:48:42;;;;;;;4.53;2.42;;;25.60;44.20;;;;;;4991736;28;20143;-80
2021/09/04 10:51:10;;;;;;;6.07;2.92;;;25.50;44.10;;;;;;4993051;28;20109;-79
2021/09/04 10:53:43;;;;;;;4.50;2.40;;;25.50;44.00;;;;;;4992346;28;20060;-78
2021/09/04 10:56:18;;;;;;;4.65;2.97;;;25.40;43.90;;;;;;4993156;28;20105;-80
2021/09/04 10:58:44;;;;;;;3.47;2.15;;;25.40;43.90;;;;;;4992877;28;20377;-79
2021/09/04 11:01:18;;;;;;;7.07;3.42;;;25.30;43.50;;;;;;4992398;28;20030;-78
2021/09/04 11:03:52;;;;;;;6.45;2.90;;;25.10;43.70;;;;;;4992898;28;20054;-80
2021/09/04 11:06:20;;;;;;;2.58;2.10;;;24.90;43.80;;;;;;4992804;28;20496;-79
2021/09/04 11:08:46;;;;;;;2.47;2.28;;;24.70;44.10;;;;;;4992697;28;20062;-79
2021/09/04 11:11:20;;;;;;;5.35;2.40;;;24.60;44.40;;;;;;4992812;28;20034;-79
2021/09/04 11:13:46;;;;;;;6.50;3.00;;;24.40;44.90;;;;;;4992899;28;20073;-79
2021/09/04 11:16:28;;;;;;;2.63;1.90;;;24.30;45.40;;;;;;4993826;28;20030;-76
2021/09/04 11:18:59;;;;;;;8.10;2.90;;;24.30;45.10;;;;;;4997358;28;20030;-80
2021/09/04 11:21:26;;;;;;;4.07;2.60;;;24.20;45.40;;;;;;4998550;28;20297;-78
2021/09/04 11:23:52;;;;;;;3.80;2.83;;;24.00;45.30;;;;;;4997269;28;20027;-73
2021/09/04 11:26:18;;;;;;;4.95;2.65;;;23.90;45.50;;;;;;4977852;28;20026;-73
2021/09/04 11:28:54;;;;;;;4.05;2.80;;;23.90;45.60;;;;;;4994665;28;20034;-73
2021/09/04 11:31:21;;;;;;;4.82;2.58;;;23.90;45.80;;;;;;4994781;28;20031;-72
2021/09/04 11:33:54;;;;;;;5.85;2.97;;;23.90;45.90;;;;;;4994633;28;20030;-73
2021/09/04 11:36:30;;;;;;;4.55;2.50;;;23.90;45.80;;;;;;4994838;28;20026;-72
2021/09/04 11:38:56;;;;;;;4.35;2.20;;;24.00;45.40;;;;;;4994779;28;20041;-73
2021/09/04 11:41:22;;;;;;;8.07;3.10;;;24.00;45.00;;;;;;4994653;28;20493;-73
2021/09/04 11:43:48;;;;;;;4.47;2.25;;;23.90;44.80;;;;;;4994911;28;20030;-72
2021/09/04 11:46:22;;;;;;;3.00;2.00;;;24.00;44.80;;;;;;4994623;28;20019;-72
2021/09/04 11:48:48;;;;;;;4.63;2.67;;;24.10;44.40;;;;;;4994602;28;20033;-72
2021/09/04 11:51:14;;;;;;;5.38;2.70;;;24.00;45.20;;;;;;4994708;28;20026;-71
2021/09/04 11:53:39;;;;;;;4.20;2.65;;;23.90;44.50;;;;;;4994483;28;20036;-73
2021/09/04 11:56:17;;;;;;;7.65;2.97;;;23.70;44.80;;;;;;4994602;28;20050;-72
2021/09/04 11:58:43;;;;;;;7.78;2.67;;;23.40;44.90;;;;;;4994308;28;20049;-71
2021/09/04 12:01:09;;;;;;;6.78;3.17;;;23.20;44.80;;;;;;4994390;28;20108;-70
2021/09/04 12:03:38;;;;;;;4.80;2.70;;;22.90;44.90;;;;;;4994654;28;20492;-71
2021/09/04 12:06:09;;;;;;;3.13;2.42;;;22.80;45.00;;;;;;4994546;28;20495;-72
2021/09/04 12:08:36;;;;;;;15.93;3.78;;;22.60;45.20;;;;;;4994191;28;20369;-71
2021/09/04 12:11:06;;;;;;;6.70;3.35;;;22.50;45.10;;;;;;4994239;28;20022;-72
2021/09/04 12:13:33;;;;;;;5.28;2.58;;;22.60;45.50;;;;;;4994291;28;20023;-72
2021/09/04 12:16:03;;;;;;;3.50;2.40;;;22.60;45.90;;;;;;4976573;28;20033;-71
2021/09/04 12:18:29;;;;;;;4.90;2.42;;;22.60;45.80;;;;;;4994070;28;20495;-72
2021/09/04 12:20:56;;;;;;;4.50;2.67;;;22.60;45.50;;;;;;4994235;28;20030;-71
2021/09/04 12:23:25;;;;;;;3.75;2.60;;;22.50;45.60;;;;;;4994115;28;20114;-72
2021/09/04 12:26:04;;;;;;;5.72;2.92;;;22.40;45.70;;;;;;4993904;28;20022;-73
2021/09/04 12:28:30;;;;;;;9.30;3.00;;;22.30;45.80;;;;;;4993722;28;20098;-71
2021/09/04 12:30:58;;;;;;;7.50;3.10;;;22.40;45.80;;;;;;4993788;28;20226;-71
2021/09/04 12:33:25;;;;;;;4.85;2.90;;;22.60;45.60;;;;;;4993830;28;20054;-74
2021/09/04 12:35:53;;;;;;;3.85;2.42;;;22.70;45.40;;;;;;4993873;28;20100;-72
2021/09/04 12:38:29;;;;;;;6.28;2.83;;;22.70;45.30;;;;;;4993725;28;20082;-72